Terminal Aerodrome Forecast
Issued by NWS

Home | Current Version | Previous Version | Text Only | Print | Product List | Glossary On
Versions: 1 2 3 4 5 6 7 8 9 10 11 12
000
FTUS44 KTSA 042320
TAFRVS
TAF
KRVS 042320Z 0500/0524 17006KT P6SM FEW060
     FM050300 15006KT P6SM FEW250
     FM051500 19007KT P6SM SCT050=

USA.gov is the U.S. government's official web portal to all federal, state and local government web resources and services.